Welcome to Des Moines Iowa Weather. I am an independent private personal weather station on the Northwest Side of Des Moines, Iowa. Just East of Windsor Heights and just West of Glendale . This site is also mobile friendly.

There are no active watches, warnings or advisories


Visit our other weather sites:

Historical Data

Weather Station Setup



Weather Underground History page Text

Daily Summary for February 26, 2018 Units:  Both    English   Metric
« Previous Day
Next Day »
Daily Weekly Monthly Yearly Custom
  High: Low: Average:
Temperature: 55.0 °F /  12.8 °C 25.4 °F /  -3.7 °C 39.9 °F /  4.4 °C
Dew Point: 32.9 °F /  0.5 °C 22.8 °F /  -5.1 °C 27.1 °F /  -2.7 °C
Humidity: 91 % 33 % 64 %
Wind Speed: 4.0 mph /  6.4 km/h - 0.6 mph /  1 km/h
Wind Gust: 11.0 mph /  17.7 km/h - -
Wind:- - SSW
Pressure: 30.18 in /  1021.9 hPa 30.09 in /  1018.8 hPa -
Precipitation: 0.00 in /  0 mm    
Historical Graphs
 
 
Tabular Data for February 26, 2018
Time Temperature Dew Point Pressure Wind Wind Speed Wind Gust Humidity Rainfall Rate (Hourly)
00:00 29.4 °F /  -1.4 °C 26.0 °F /  -3.3 °C 30.10 in /  1019.2 hPa Calm     87 % 0.00 in /  0 mm
00:05 29.5 °F /  -1.4 °C 26.1 °F /  -3.3 °C 30.10 in /  1019.2 hPa Calm     87 % 0.00 in /  0 mm
00:06 29.5 °F /  -1.4 °C 26.0 °F /  -3.3 °C 30.09 in /  1018.8 hPa Calm     87 % 0.00 in /  0 mm
00:10 29.5 °F /  -1.4 °C 26.1 °F /  -3.3 °C 30.10 in /  1019.2 hPa Calm     87 % 0.00 in /  0 mm
00:15 29.5 °F /  -1.4 °C 26.1 °F /  -3.3 °C 30.10 in /  1019.2 hPa Calm     87 % 0.00 in /  0 mm
00:20 29.5 °F /  -1.4 °C 26.1 °F /  -3.3 °C 30.09 in /  1018.8 hPa Calm     87 % 0.00 in /  0 mm
00:21 29.5 °F /  -1.4 °C 26.0 °F /  -3.3 °C 30.09 in /  1018.8 hPa Calm     87 % 0.00 in /  0 mm
00:25 29.5 °F /  -1.4 °C 26.1 °F /  -3.3 °C 30.09 in /  1018.8 hPa Calm     87 % 0.00 in /  0 mm
00:30 29.5 °F /  -1.4 °C 26.1 °F /  -3.3 °C 30.09 in /  1018.8 hPa Calm     87 % 0.00 in /  0 mm
00:35 29.5 °F /  -1.4 °C 26.4 °F /  -3.1 °C 30.10 in /  1019.2 hPa Calm     88 % 0.00 in /  0 mm
00:36 29.5 °F /  -1.4 °C 26.0 °F /  -3.3 °C 30.10 in /  1019.2 hPa Calm     88 % 0.00 in /  0 mm
00:40 29.5 °F /  -1.4 °C 26.4 °F /  -3.1 °C 30.10 in /  1019.2 hPa Calm     88 % 0.00 in /  0 mm
00:45 29.5 °F /  -1.4 °C 26.4 °F /  -3.1 °C 30.10 in /  1019.2 hPa Calm     88 % 0.00 in /  0 mm
00:50 29.5 °F /  -1.4 °C 26.1 °F /  -3.3 °C 30.10 in /  1019.2 hPa Calm     87 % 0.00 in /  0 mm
00:51 29.5 °F /  -1.4 °C 26.0 °F /  -3.3 °C 30.10 in /  1019.2 hPa Calm     87 % 0.00 in /  0 mm
00:55 29.5 °F /  -1.4 °C 26.1 °F /  -3.3 °C 30.10 in /  1019.2 hPa Calm     87 % 0.00 in /  0 mm
01:00 29.5 °F /  -1.4 °C 26.1 °F /  -3.3 °C 30.10 in /  1019.2 hPa Calm     87 % 0.00 in /  0 mm
01:05 29.4 °F /  -1.4 °C 26.0 °F /  -3.3 °C 30.10 in /  1019.2 hPa Calm     87 % 0.00 in /  0 mm
01:06 29.3 °F /  -1.5 °C 26.0 °F /  -3.3 °C 30.10 in /  1019.2 hPa Calm     87 % 0.00 in /  0 mm
01:10 29.4 °F /  -1.4 °C 26.0 °F /  -3.3 °C 30.10 in /  1019.2 hPa Calm     87 % 0.00 in /  0 mm
01:15 29.4 °F /  -1.4 °C 26.0 °F /  -3.3 °C 30.10 in /  1019.2 hPa Calm     87 % 0.00 in /  0 mm
01:20 29.1 °F /  -1.6 °C 25.7 °F /  -3.5 °C 30.10 in /  1019.2 hPa Calm     87 % 0.00 in /  0 mm
01:21 29.0 °F /  -1.7 °C 26.0 °F /  -3.3 °C 30.10 in /  1019.2 hPa Calm     87 % 0.00 in /  0 mm
01:25 29.1 °F /  -1.6 °C 25.7 °F /  -3.5 °C 30.10 in /  1019.2 hPa Calm     87 % 0.00 in /  0 mm
01:30 29.1 °F /  -1.6 °C 25.7 °F /  -3.5 °C 30.10 in /  1019.2 hPa Calm     87 % 0.00 in /  0 mm
01:35 28.8 °F /  -1.8 °C 25.4 °F /  -3.7 °C 30.11 in /  1019.5 hPa Calm     87 % 0.00 in /  0 mm
01:36 28.6 °F /  -1.9 °C 25.0 °F /  -3.9 °C 30.11 in /  1019.5 hPa Calm     87 % 0.00 in /  0 mm
01:40 28.8 °F /  -1.8 °C 25.4 °F /  -3.7 °C 30.11 in /  1019.5 hPa Calm     87 % 0.00 in /  0 mm
01:45 28.8 °F /  -1.8 °C 25.4 °F /  -3.7 °C 30.11 in /  1019.5 hPa Calm     87 % 0.00 in /  0 mm
01:50 28.4 °F /  -2 °C 25.0 °F /  -3.9 °C 30.11 in /  1019.5 hPa Calm     87 % 0.00 in /  0 mm
01:51 28.2 °F /  -2.1 °C 25.0 °F /  -3.9 °C 30.11 in /  1019.5 hPa Calm     87 % 0.00 in /  0 mm
01:55 28.4 °F /  -2 °C 25.0 °F /  -3.9 °C 30.11 in /  1019.5 hPa Calm     87 % 0.00 in /  0 mm
02:00 28.4 °F /  -2 °C 25.0 °F /  -3.9 °C 30.11 in /  1019.5 hPa Calm     87 % 0.00 in /  0 mm
02:05 27.9 °F /  -2.3 °C 24.5 °F /  -4.2 °C 30.11 in /  1019.5 hPa Calm     87 % 0.00 in /  0 mm
02:06 27.8 °F /  -2.3 °C 24.0 °F /  -4.4 °C 30.11 in /  1019.5 hPa Calm     87 % 0.00 in /  0 mm
02:10 27.9 °F /  -2.3 °C 24.5 °F /  -4.2 °C 30.11 in /  1019.5 hPa Calm     87 % 0.00 in /  0 mm
02:15 27.9 °F /  -2.3 °C 24.5 °F /  -4.2 °C 30.11 in /  1019.5 hPa Calm     87 % 0.00 in /  0 mm
02:20 27.7 °F /  -2.4 °C 24.4 °F /  -4.2 °C 30.11 in /  1019.5 hPa Calm     87 % 0.00 in /  0 mm
02:21 27.7 °F /  -2.4 °C 25.0 °F /  -3.9 °C 30.11 in /  1019.5 hPa Calm     88 % 0.00 in /  0 mm
02:25 27.7 °F /  -2.4 °C 24.4 °F /  -4.2 °C 30.11 in /  1019.5 hPa Calm     87 % 0.00 in /  0 mm
02:30 27.7 °F /  -2.4 °C 24.4 °F /  -4.2 °C 30.11 in /  1019.5 hPa Calm     87 % 0.00 in /  0 mm
02:35 27.6 °F /  -2.4 °C 24.5 °F /  -4.2 °C 30.11 in /  1019.5 hPa Calm     88 % 0.00 in /  0 mm
02:39 27.5 °F /  -2.5 °C 24.0 °F /  -4.4 °C 30.11 in /  1019.5 hPa Calm     88 % 0.00 in /  0 mm
02:40 27.6 °F /  -2.4 °C 24.5 °F /  -4.2 °C 30.11 in /  1019.5 hPa Calm     88 % 0.00 in /  0 mm
02:45 27.6 °F /  -2.4 °C 24.5 °F /  -4.2 °C 30.11 in /  1019.5 hPa Calm     88 % 0.00 in /  0 mm
02:50 27.4 °F /  -2.6 °C 24.3 °F /  -4.3 °C 30.11 in /  1019.5 hPa Calm     88 % 0.00 in /  0 mm
02:51 27.3 °F /  -2.6 °C 24.0 °F /  -4.4 °C 30.11 in /  1019.5 hPa Calm     88 % 0.00 in /  0 mm
02:55 27.4 °F /  -2.6 °C 24.3 °F /  -4.3 °C 30.11 in /  1019.5 hPa Calm     88 % 0.00 in /  0 mm
03:00 27.4 °F /  -2.6 °C 24.3 °F /  -4.3 °C 30.11 in /  1019.5 hPa Calm     88 % 0.00 in /  0 mm
03:05 27.2 °F /  -2.7 °C 24.1 °F /  -4.4 °C 30.11 in /  1019.5 hPa Calm     88 % 0.00 in /  0 mm
03:07 27.1 °F /  -2.7 °C 24.0 °F /  -4.4 °C 30.11 in /  1019.5 hPa Calm     88 % 0.00 in /  0 mm
03:10 27.2 °F /  -2.7 °C 24.1 °F /  -4.4 °C 30.11 in /  1019.5 hPa Calm     88 % 0.00 in /  0 mm
03:15 27.2 °F /  -2.7 °C 24.1 °F /  -4.4 °C 30.11 in /  1019.5 hPa Calm     88 % 0.00 in /  0 mm
03:20 26.8 °F /  -2.9 °C 23.7 °F /  -4.6 °C 30.11 in /  1019.5 hPa Calm     88 % 0.00 in /  0 mm
03:25 26.8 °F /  -2.9 °C 23.7 °F /  -4.6 °C 30.11 in /  1019.5 hPa Calm     88 % 0.00 in /  0 mm
03:26 26.6 °F /  -3 °C 24.0 °F /  -4.4 °C 30.11 in /  1019.5 hPa Calm     88 % 0.00 in /  0 mm
03:30 26.8 °F /  -2.9 °C 23.7 °F /  -4.6 °C 30.11 in /  1019.5 hPa Calm     88 % 0.00 in /  0 mm
03:35 26.4 °F /  -3.1 °C 23.3 °F /  -4.8 °C 30.11 in /  1019.5 hPa Calm     88 % 0.00 in /  0 mm
03:36 26.3 °F /  -3.2 °C 23.0 °F /  -5 °C 30.11 in /  1019.5 hPa Calm     88 % 0.00 in /  0 mm
03:40 26.4 °F /  -3.1 °C 23.3 °F /  -4.8 °C 30.11 in /  1019.5 hPa Calm     88 % 0.00 in /  0 mm
03:45 26.4 °F /  -3.1 °C 23.3 °F /  -4.8 °C 30.11 in /  1019.5 hPa Calm     88 % 0.00 in /  0 mm
03:50 26.2 °F /  -3.2 °C 23.1 °F /  -4.9 °C 30.11 in /  1019.5 hPa Calm     88 % 0.00 in /  0 mm
03:51 26.2 °F /  -3.2 °C 23.0 °F /  -5 °C 30.11 in /  1019.5 hPa Calm     89 % 0.00 in /  0 mm
03:55 26.2 °F /  -3.2 °C 23.1 °F /  -4.9 °C 30.11 in /  1019.5 hPa Calm     88 % 0.00 in /  0 mm
04:00 26.2 °F /  -3.2 °C 23.1 °F /  -4.9 °C 30.11 in /  1019.5 hPa Calm     88 % 0.00 in /  0 mm
04:05 26.1 °F /  -3.3 °C 23.3 °F /  -4.8 °C 30.11 in /  1019.5 hPa Calm     89 % 0.00 in /  0 mm
04:06 26.1 °F /  -3.3 °C 23.0 °F /  -5 °C 30.11 in /  1019.5 hPa Calm     89 % 0.00 in /  0 mm
04:10 26.1 °F /  -3.3 °C 23.3 °F /  -4.8 °C 30.11 in /  1019.5 hPa Calm     89 % 0.00 in /  0 mm
04:15 26.1 °F /  -3.3 °C 23.3 °F /  -4.8 °C 30.11 in /  1019.5 hPa Calm     89 % 0.00 in /  0 mm
04:20 26.1 °F /  -3.3 °C 23.3 °F /  -4.8 °C 30.11 in /  1019.5 hPa Calm     89 % 0.00 in /  0 mm
04:21 26.2 °F /  -3.2 °C 23.0 °F /  -5 °C 30.11 in /  1019.5 hPa Calm     89 % 0.00 in /  0 mm
04:25 26.1 °F /  -3.3 °C 23.3 °F /  -4.8 °C 30.11 in /  1019.5 hPa Calm     89 % 0.00 in /  0 mm
04:30 26.1 °F /  -3.3 °C 23.3 °F /  -4.8 °C 30.11 in /  1019.5 hPa Calm     89 % 0.00 in /  0 mm
04:35 26.3 °F /  -3.2 °C 23.8 °F /  -4.6 °C 30.11 in /  1019.5 hPa Calm     90 % 0.00 in /  0 mm
04:37 26.3 °F /  -3.2 °C 24.0 °F /  -4.4 °C 30.11 in /  1019.5 hPa Calm     90 % 0.00 in /  0 mm
04:40 26.3 °F /  -3.2 °C 23.8 °F /  -4.6 °C 30.11 in /  1019.5 hPa Calm     90 % 0.00 in /  0 mm
04:45 26.3 °F /  -3.2 °C 23.8 °F /  -4.6 °C 30.11 in /  1019.5 hPa Calm     90 % 0.00 in /  0 mm
04:50 26.2 °F /  -3.2 °C 23.4 °F /  -4.8 °C 30.12 in /  1019.9 hPa Calm     89 % 0.00 in /  0 mm
04:52 26.2 °F /  -3.2 °C 24.0 °F /  -4.4 °C 30.12 in /  1019.9 hPa Calm     90 % 0.00 in /  0 mm
04:55 26.2 °F /  -3.2 °C 23.4 °F /  -4.8 °C 30.12 in /  1019.9 hPa Calm     89 % 0.00 in /  0 mm
05:00 26.2 °F /  -3.2 °C 23.4 °F /  -4.8 °C 30.12 in /  1019.9 hPa Calm     89 % 0.00 in /  0 mm
05:05 26.1 °F /  -3.3 °C 23.6 °F /  -4.7 °C 30.12 in /  1019.9 hPa Calm     90 % 0.00 in /  0 mm
05:07 26.0 °F /  -3.3 °C 23.0 °F /  -5 °C 30.12 in /  1019.9 hPa Calm     89 % 0.00 in /  0 mm
05:10 26.1 °F /  -3.3 °C 23.6 °F /  -4.7 °C 30.12 in /  1019.9 hPa Calm     90 % 0.00 in /  0 mm
05:15 26.1 °F /  -3.3 °C 23.6 °F /  -4.7 °C 30.12 in /  1019.9 hPa Calm     90 % 0.00 in /  0 mm
05:20 25.9 °F /  -3.4 °C 23.1 °F /  -4.9 °C 30.12 in /  1019.9 hPa Calm     89 % 0.00 in /  0 mm
05:22 25.7 °F /  -3.5 °C 23.0 °F /  -5 °C 30.12 in /  1019.9 hPa Calm     89 % 0.00 in /  0 mm
05:25 25.9 °F /  -3.4 °C 23.1 °F /  -4.9 °C 30.12 in /  1019.9 hPa Calm     89 % 0.00 in /  0 mm
05:30 25.9 °F /  -3.4 °C 23.1 °F /  -4.9 °C 30.12 in /  1019.9 hPa Calm     89 % 0.00 in /  0 mm
05:35 25.6 °F /  -3.6 °C 22.8 °F /  -5.1 °C 30.13 in /  1020.2 hPa Calm     89 % 0.00 in /  0 mm
05:37 25.6 °F /  -3.6 °C 23.0 °F /  -5 °C 30.13 in /  1020.2 hPa Calm     90 % 0.00 in /  0 mm
05:40 25.6 °F /  -3.6 °C 22.8 °F /  -5.1 °C 30.13 in /  1020.2 hPa Calm     89 % 0.00 in /  0 mm
05:45 25.6 °F /  -3.6 °C 22.8 °F /  -5.1 °C 30.13 in /  1020.2 hPa Calm     89 % 0.00 in /  0 mm
05:50 25.7 °F /  -3.5 °C 23.2 °F /  -4.9 °C 30.13 in /  1020.2 hPa Calm     90 % 0.00 in /  0 mm
05:52 25.7 °F /  -3.5 °C 23.0 °F /  -5 °C 30.13 in /  1020.2 hPa Calm     90 % 0.00 in /  0 mm
05:55 25.7 °F /  -3.5 °C 23.2 °F /  -4.9 °C 30.13 in /  1020.2 hPa Calm     90 % 0.00 in /  0 mm
06:00 25.7 °F /  -3.5 °C 23.2 °F /  -4.9 °C 30.13 in /  1020.2 hPa Calm     90 % 0.00 in /  0 mm
06:05 25.7 °F /  -3.5 °C 22.9 °F /  -5.1 °C 30.13 in /  1020.2 hPa Calm     89 % 0.00 in /  0 mm
06:07 25.7 °F /  -3.5 °C 23.0 °F /  -5 °C 30.14 in /  1020.5 hPa Calm     90 % 0.00 in /  0 mm
06:10 25.7 °F /  -3.5 °C 22.9 °F /  -5.1 °C 30.13 in /  1020.2 hPa Calm     89 % 0.00 in /  0 mm
06:15 25.7 °F /  -3.5 °C 22.9 °F /  -5.1 °C 30.13 in /  1020.2 hPa Calm     89 % 0.00 in /  0 mm
06:20 25.6 °F /  -3.6 °C 22.8 °F /  -5.1 °C 30.14 in /  1020.5 hPa Calm   1.0 mph /  1.6 km/h 89 % 0.00 in /  0 mm
06:22 25.6 °F /  -3.6 °C 23.0 °F /  -5 °C 30.13 in /  1020.2 hPa Calm     90 % 0.00 in /  0 mm
06:25 25.6 °F /  -3.6 °C 22.8 °F /  -5.1 °C 30.14 in /  1020.5 hPa Calm   1.0 mph /  1.6 km/h 89 % 0.00 in /  0 mm
06:30 25.6 °F /  -3.6 °C 22.8 °F /  -5.1 °C 30.14 in /  1020.5 hPa Calm   1.0 mph /  1.6 km/h 89 % 0.00 in /  0 mm
06:35 25.6 °F /  -3.6 °C 23.1 °F /  -4.9 °C 30.14 in /  1020.5 hPa Calm     90 % 0.00 in /  0 mm
06:37 25.5 °F /  -3.6 °C 23.0 °F /  -5 °C 30.14 in /  1020.5 hPa Calm     90 % 0.00 in /  0 mm
06:40 25.6 °F /  -3.6 °C 23.1 °F /  -4.9 °C 30.14 in /  1020.5 hPa Calm     90 % 0.00 in /  0 mm
06:45 25.6 °F /  -3.6 °C 23.1 °F /  -4.9 °C 30.14 in /  1020.5 hPa Calm     90 % 0.00 in /  0 mm
06:50 25.5 °F /  -3.6 °C 23.0 °F /  -5 °C 30.14 in /  1020.5 hPa Calm     90 % 0.00 in /  0 mm
06:52 25.5 °F /  -3.6 °C 23.0 °F /  -5 °C 30.14 in /  1020.5 hPa Calm     90 % 0.00 in /  0 mm
06:55 25.5 °F /  -3.6 °C 23.0 °F /  -5 °C 30.14 in /  1020.5 hPa Calm     90 % 0.00 in /  0 mm
07:00 25.5 °F /  -3.6 °C 23.0 °F /  -5 °C 30.14 in /  1020.5 hPa Calm     90 % 0.00 in /  0 mm
07:05 25.4 °F /  -3.7 °C 22.9 °F /  -5.1 °C 30.15 in /  1020.9 hPa Calm     90 % 0.00 in /  0 mm
07:07 25.4 °F /  -3.7 °C 23.0 °F /  -5 °C 30.14 in /  1020.5 hPa Calm     90 % 0.00 in /  0 mm
07:10 25.4 °F /  -3.7 °C 22.9 °F /  -5.1 °C 30.15 in /  1020.9 hPa Calm     90 % 0.00 in /  0 mm
07:15 25.4 °F /  -3.7 °C 22.9 °F /  -5.1 °C 30.15 in /  1020.9 hPa Calm     90 % 0.00 in /  0 mm
07:20 25.4 °F /  -3.7 °C 22.9 °F /  -5.1 °C 30.15 in /  1020.9 hPa Calm     90 % 0.00 in /  0 mm
07:22 25.4 °F /  -3.7 °C 23.0 °F /  -5 °C 30.15 in /  1020.9 hPa Calm     90 % 0.00 in /  0 mm
07:25 25.4 °F /  -3.7 °C 22.9 °F /  -5.1 °C 30.15 in /  1020.9 hPa Calm     90 % 0.00 in /  0 mm
07:30 25.4 °F /  -3.7 °C 22.9 °F /  -5.1 °C 30.15 in /  1020.9 hPa Calm     90 % 0.00 in /  0 mm
07:35 25.4 °F /  -3.7 °C 22.9 °F /  -5.1 °C 30.15 in /  1020.9 hPa Calm     90 % 0.00 in /  0 mm
07:37 25.5 °F /  -3.6 °C 23.0 °F /  -5 °C 30.15 in /  1020.9 hPa Calm     90 % 0.00 in /  0 mm
07:40 25.4 °F /  -3.7 °C 22.9 °F /  -5.1 °C 30.15 in /  1020.9 hPa Calm     90 % 0.00 in /  0 mm
07:45 25.4 °F /  -3.7 °C 22.9 °F /  -5.1 °C 30.15 in /  1020.9 hPa Calm     90 % 0.00 in /  0 mm
07:50 25.4 °F /  -3.7 °C 22.9 °F /  -5.1 °C 30.15 in /  1020.9 hPa Calm     90 % 0.00 in /  0 mm
07:55 25.4 °F /  -3.7 °C 22.9 °F /  -5.1 °C 30.15 in /  1020.9 hPa Calm     90 % 0.00 in /  0 mm
08:00 25.8 °F /  -3.4 °C 23.3 °F /  -4.8 °C 30.15 in /  1020.9 hPa Calm     90 % 0.00 in /  0 mm
08:05 25.8 °F /  -3.4 °C 23.3 °F /  -4.8 °C 30.15 in /  1020.9 hPa Calm     90 % 0.00 in /  0 mm
08:08 27.9 °F /  -2.3 °C 26.0 °F /  -3.3 °C 30.15 in /  1020.9 hPa Calm     91 % 0.00 in /  0 mm
08:10 25.8 °F /  -3.4 °C 23.3 °F /  -4.8 °C 30.15 in /  1020.9 hPa Calm     90 % 0.00 in /  0 mm
08:15 27.0 °F /  -2.8 °C 24.7 °F /  -4.1 °C 30.16 in /  1021.2 hPa Calm   2.0 mph /  3.2 km/h 91 % 0.00 in /  0 mm
08:20 27.0 °F /  -2.8 °C 24.7 °F /  -4.1 °C 30.16 in /  1021.2 hPa Calm   2.0 mph /  3.2 km/h 91 % 0.00 in /  0 mm
08:23 29.8 °F /  -1.2 °C 27.0 °F /  -2.8 °C 30.16 in /  1021.2 hPa Calm   3.0 mph /  4.8 km/h 90 % 0.00 in /  0 mm
08:25 27.0 °F /  -2.8 °C 24.7 °F /  -4.1 °C 30.16 in /  1021.2 hPa Calm   2.0 mph /  3.2 km/h 91 % 0.00 in /  0 mm
08:30 28.8 °F /  -1.8 °C 26.5 °F /  -3.1 °C 30.16 in /  1021.2 hPa Calm   3.0 mph /  4.8 km/h 91 % 0.00 in /  0 mm
08:35 28.8 °F /  -1.8 °C 26.5 °F /  -3.1 °C 30.16 in /  1021.2 hPa Calm   3.0 mph /  4.8 km/h 91 % 0.00 in /  0 mm
08:38 31.8 °F /  -0.1 °C 28.0 °F /  -2.2 °C 30.16 in /  1021.2 hPa Calm   3.0 mph /  4.8 km/h 86 % 0.00 in /  0 mm
08:40 28.8 °F /  -1.8 °C 26.5 °F /  -3.1 °C 30.16 in /  1021.2 hPa Calm   3.0 mph /  4.8 km/h 91 % 0.00 in /  0 mm
08:45 30.7 °F /  -0.7 °C 27.8 °F /  -2.3 °C 30.16 in /  1021.2 hPa SW 1.0 mph /  1.6 km/h 3.0 mph /  4.8 km/h 89 % 0.00 in /  0 mm
08:50 30.7 °F /  -0.7 °C 27.8 °F /  -2.3 °C 30.16 in /  1021.2 hPa SW 1.0 mph /  1.6 km/h 3.0 mph /  4.8 km/h 89 % 0.00 in /  0 mm
08:53 33.6 °F /  0.9 °C 28.0 °F /  -2.2 °C 30.16 in /  1021.2 hPa SW 2.0 mph /  3.2 km/h 5.0 mph /  8 km/h 81 % 0.00 in /  0 mm
08:55 30.7 °F /  -0.7 °C 27.8 °F /  -2.3 °C 30.16 in /  1021.2 hPa SW 1.0 mph /  1.6 km/h 3.0 mph /  4.8 km/h 89 % 0.00 in /  0 mm
09:00 32.6 °F /  0.3 °C 28.0 °F /  -2.2 °C 30.16 in /  1021.2 hPa SW 1.0 mph /  1.6 km/h 3.0 mph /  4.8 km/h 83 % 0.00 in /  0 mm
09:05 32.6 °F /  0.3 °C 28.0 °F /  -2.2 °C 30.16 in /  1021.2 hPa SW 1.0 mph /  1.6 km/h 3.0 mph /  4.8 km/h 83 % 0.00 in /  0 mm
09:08 35.9 °F /  2.2 °C 29.0 °F /  -1.7 °C 30.16 in /  1021.2 hPa SW 1.0 mph /  1.6 km/h 3.0 mph /  4.8 km/h 75 % 0.00 in /  0 mm
09:10 32.6 °F /  0.3 °C 28.0 °F /  -2.2 °C 30.16 in /  1021.2 hPa SW 1.0 mph /  1.6 km/h 3.0 mph /  4.8 km/h 83 % 0.00 in /  0 mm
09:15 35.1 °F /  1.7 °C 28.3 °F /  -2.1 °C 30.16 in /  1021.2 hPa SW 2.0 mph /  3.2 km/h 5.0 mph /  8 km/h 76 % 0.00 in /  0 mm
09:20 35.1 °F /  1.7 °C 28.3 °F /  -2.1 °C 30.16 in /  1021.2 hPa SW 2.0 mph /  3.2 km/h 5.0 mph /  8 km/h 76 % 0.00 in /  0 mm
09:23 37.6 °F /  3.1 °C 29.0 °F /  -1.7 °C 30.16 in /  1021.2 hPa SW 2.0 mph /  3.2 km/h 4.0 mph /  6.4 km/h 72 % 0.00 in /  0 mm
09:25 35.1 °F /  1.7 °C 28.3 °F /  -2.1 °C 30.16 in /  1021.2 hPa SW 2.0 mph /  3.2 km/h 5.0 mph /  8 km/h 76 % 0.00 in /  0 mm
09:30 36.6 °F /  2.6 °C 28.8 °F /  -1.8 °C 30.17 in /  1021.6 hPa SW 2.0 mph /  3.2 km/h 6.0 mph /  9.7 km/h 73 % 0.00 in /  0 mm
09:35 36.6 °F /  2.6 °C 28.8 °F /  -1.8 °C 30.17 in /  1021.6 hPa SW 2.0 mph /  3.2 km/h 6.0 mph /  9.7 km/h 73 % 0.00 in /  0 mm
09:38 39.2 °F /  4 °C 30.0 °F /  -1.1 °C 30.17 in /  1021.6 hPa SW 4.0 mph /  6.4 km/h 4.0 mph /  6.4 km/h 70 % 0.00 in /  0 mm
09:40 36.6 °F /  2.6 °C 28.8 °F /  -1.8 °C 30.17 in /  1021.6 hPa SW 2.0 mph /  3.2 km/h 6.0 mph /  9.7 km/h 73 % 0.00 in /  0 mm
09:45 38.3 °F /  3.5 °C 29.4 °F /  -1.4 °C 30.17 in /  1021.6 hPa SW 1.0 mph /  1.6 km/h 4.0 mph /  6.4 km/h 70 % 0.00 in /  0 mm
09:50 38.3 °F /  3.5 °C 29.4 °F /  -1.4 °C 30.17 in /  1021.6 hPa SW 1.0 mph /  1.6 km/h 4.0 mph /  6.4 km/h 70 % 0.00 in /  0 mm
09:53 40.6 °F /  4.8 °C 30.0 °F /  -1.1 °C 30.17 in /  1021.6 hPa SW 2.0 mph /  3.2 km/h 4.0 mph /  6.4 km/h 66 % 0.00 in /  0 mm
09:55 38.3 °F /  3.5 °C 29.4 °F /  -1.4 °C 30.17 in /  1021.6 hPa SW 1.0 mph /  1.6 km/h 4.0 mph /  6.4 km/h 70 % 0.00 in /  0 mm
10:00 39.8 °F /  4.3 °C 30.1 °F /  -1.1 °C 30.17 in /  1021.6 hPa SW 2.0 mph /  3.2 km/h 5.0 mph /  8 km/h 68 % 0.00 in /  0 mm
10:05 39.8 °F /  4.3 °C 30.1 °F /  -1.1 °C 30.17 in /  1021.6 hPa SW 2.0 mph /  3.2 km/h 5.0 mph /  8 km/h 68 % 0.00 in /  0 mm
10:08 42.4 °F /  5.8 °C 30.0 °F /  -1.1 °C 30.17 in /  1021.6 hPa Calm   5.0 mph /  8 km/h 63 % 0.00 in /  0 mm
10:10 39.8 °F /  4.3 °C 30.1 °F /  -1.1 °C 30.17 in /  1021.6 hPa SW 2.0 mph /  3.2 km/h 5.0 mph /  8 km/h 68 % 0.00 in /  0 mm
10:15 41.4 °F /  5.2 °C 30.9 °F /  -0.6 °C 30.17 in /  1021.6 hPa SW 1.0 mph /  1.6 km/h 4.0 mph /  6.4 km/h 66 % 0.00 in /  0 mm
10:20 41.4 °F /  5.2 °C 30.9 °F /  -0.6 °C 30.17 in /  1021.6 hPa SW 1.0 mph /  1.6 km/h 4.0 mph /  6.4 km/h 66 % 0.00 in /  0 mm
10:23 43.4 °F /  6.3 °C 31.0 °F /  -0.6 °C 30.17 in /  1021.6 hPa Calm   7.0 mph /  11.3 km/h 61 % 0.00 in /  0 mm
10:25 41.4 °F /  5.2 °C 30.9 °F /  -0.6 °C 30.17 in /  1021.6 hPa SW 1.0 mph /  1.6 km/h 4.0 mph /  6.4 km/h 66 % 0.00 in /  0 mm
10:30 42.9 °F /  6.1 °C 30.8 °F /  -0.7 °C 30.17 in /  1021.6 hPa SW 1.0 mph /  1.6 km/h 5.0 mph /  8 km/h 62 % 0.00 in /  0 mm
10:35 42.9 °F /  6.1 °C 30.8 °F /  -0.7 °C 30.17 in /  1021.6 hPa SW 1.0 mph /  1.6 km/h 5.0 mph /  8 km/h 62 % 0.00 in /  0 mm
10:38 44.8 °F /  7.1 °C 31.0 °F /  -0.6 °C 30.17 in /  1021.6 hPa SW 4.0 mph /  6.4 km/h 4.0 mph /  6.4 km/h 59 % 0.00 in /  0 mm
10:40 42.9 °F /  6.1 °C 30.8 °F /  -0.7 °C 30.17 in /  1021.6 hPa SW 1.0 mph /  1.6 km/h 5.0 mph /  8 km/h 62 % 0.00 in /  0 mm
10:45 43.9 °F /  6.6 °C 31.3 °F /  -0.4 °C 30.18 in /  1021.9 hPa SW 1.0 mph /  1.6 km/h 7.0 mph /  11.3 km/h 61 % 0.00 in /  0 mm
10:50 43.9 °F /  6.6 °C 31.3 °F /  -0.4 °C 30.18 in /  1021.9 hPa SW 1.0 mph /  1.6 km/h 7.0 mph /  11.3 km/h 61 % 0.00 in /  0 mm
10:53 45.6 °F /  7.6 °C 32.0 °F /  0 °C 30.17 in /  1021.6 hPa SSE 1.0 mph /  1.6 km/h 6.0 mph /  9.7 km/h 59 % 0.00 in /  0 mm
10:55 43.9 °F /  6.6 °C 31.3 °F /  -0.4 °C 30.18 in /  1021.9 hPa SW 1.0 mph /  1.6 km/h 7.0 mph /  11.3 km/h 61 % 0.00 in /  0 mm
11:00 45.2 °F /  7.3 °C 31.7 °F /  -0.2 °C 30.17 in /  1021.6 hPa SW 1.0 mph /  1.6 km/h 5.0 mph /  8 km/h 59 % 0.00 in /  0 mm
11:05 45.2 °F /  7.3 °C 31.7 °F /  -0.2 °C 30.17 in /  1021.6 hPa SW 1.0 mph /  1.6 km/h 5.0 mph /  8 km/h 59 % 0.00 in /  0 mm
11:08 46.2 °F /  7.9 °C 31.0 °F /  -0.6 °C 30.17 in /  1021.6 hPa Calm   7.0 mph /  11.3 km/h 56 % 0.00 in /  0 mm
11:10 45.2 °F /  7.3 °C 31.7 °F /  -0.2 °C 30.17 in /  1021.6 hPa SW 1.0 mph /  1.6 km/h 5.0 mph /  8 km/h 59 % 0.00 in /  0 mm
11:15 45.8 °F /  7.7 °C 31.0 °F /  -0.6 °C 30.17 in /  1021.6 hPa SSE 1.0 mph /  1.6 km/h 7.0 mph /  11.3 km/h 56 % 0.00 in /  0 mm
11:20 45.8 °F /  7.7 °C 31.0 °F /  -0.6 °C 30.17 in /  1021.6 hPa SSE 1.0 mph /  1.6 km/h 7.0 mph /  11.3 km/h 56 % 0.00 in /  0 mm
11:23 47.3 °F /  8.5 °C 32.0 °F /  0 °C 30.17 in /  1021.6 hPa SSW 2.0 mph /  3.2 km/h 4.0 mph /  6.4 km/h 55 % 0.00 in /  0 mm
11:25 45.8 °F /  7.7 °C 31.0 °F /  -0.6 °C 30.17 in /  1021.6 hPa SSE 1.0 mph /  1.6 km/h 7.0 mph /  11.3 km/h 56 % 0.00 in /  0 mm
11:30 46.7 °F /  8.2 °C 31.8 °F /  -0.1 °C 30.17 in /  1021.6 hPa SSE 1.0 mph /  1.6 km/h 7.0 mph /  11.3 km/h 56 % 0.00 in /  0 mm
11:35 46.7 °F /  8.2 °C 31.8 °F /  -0.1 °C 30.17 in /  1021.6 hPa SSE 1.0 mph /  1.6 km/h 7.0 mph /  11.3 km/h 56 % 0.00 in /  0 mm
11:38 48.3 °F /  9.1 °C 32.0 °F /  0 °C 30.17 in /  1021.6 hPa South 1.0 mph /  1.6 km/h 4.0 mph /  6.4 km/h 54 % 0.00 in /  0 mm
11:40 46.7 °F /  8.2 °C 31.8 °F /  -0.1 °C 30.17 in /  1021.6 hPa SSE 1.0 mph /  1.6 km/h 7.0 mph /  11.3 km/h 56 % 0.00 in /  0 mm
11:45 47.7 °F /  8.7 °C 31.9 °F /  -0.1 °C 30.17 in /  1021.6 hPa SSW 1.0 mph /  1.6 km/h 4.0 mph /  6.4 km/h 54 % 0.00 in /  0 mm
11:50 47.7 °F /  8.7 °C 31.9 °F /  -0.1 °C 30.17 in /  1021.6 hPa SSW 1.0 mph /  1.6 km/h 4.0 mph /  6.4 km/h 54 % 0.00 in /  0 mm
11:53 49.8 °F /  9.9 °C 32.0 °F /  0 °C 30.17 in /  1021.6 hPa Calm   4.0 mph /  6.4 km/h 50 % 0.00 in /  0 mm
11:55 47.7 °F /  8.7 °C 31.9 °F /  -0.1 °C 30.17 in /  1021.6 hPa SSW 1.0 mph /  1.6 km/h 4.0 mph /  6.4 km/h 54 % 0.00 in /  0 mm
12:00 48.8 °F /  9.3 °C 32.0 °F /  0 °C 30.17 in /  1021.6 hPa South 1.0 mph /  1.6 km/h 4.0 mph /  6.4 km/h 52 % 0.00 in /  0 mm
12:05 48.8 °F /  9.3 °C 32.0 °F /  0 °C 30.17 in /  1021.6 hPa South 1.0 mph /  1.6 km/h 4.0 mph /  6.4 km/h 52 % 0.00 in /  0 mm
12:09 51.0 °F /  10.6 °C 31.0 °F /  -0.6 °C 30.17 in /  1021.6 hPa Calm   4.0 mph /  6.4 km/h 47 % 0.00 in /  0 mm
12:10 48.8 °F /  9.3 °C 32.0 °F /  0 °C 30.17 in /  1021.6 hPa South 1.0 mph /  1.6 km/h 4.0 mph /  6.4 km/h 52 % 0.00 in /  0 mm
12:15 50.3 °F /  10.2 °C 31.9 °F /  -0.1 °C 30.17 in /  1021.6 hPa South 1.0 mph /  1.6 km/h 4.0 mph /  6.4 km/h 49 % 0.00 in /  0 mm
12:20 50.3 °F /  10.2 °C 31.9 °F /  -0.1 °C 30.17 in /  1021.6 hPa South 1.0 mph /  1.6 km/h 4.0 mph /  6.4 km/h 49 % 0.00 in /  0 mm
12:24 51.4 °F /  10.8 °C 31.0 °F /  -0.6 °C 30.16 in /  1021.2 hPa Calm   7.0 mph /  11.3 km/h 45 % 0.00 in /  0 mm
12:25 50.3 °F /  10.2 °C 31.9 °F /  -0.1 °C 30.17 in /  1021.6 hPa South 1.0 mph /  1.6 km/h 4.0 mph /  6.4 km/h 49 % 0.00 in /  0 mm
12:30 51.1 °F /  10.6 °C 31.6 °F /  -0.2 °C 30.17 in /  1021.6 hPa South 1.0 mph /  1.6 km/h 5.0 mph /  8 km/h 47 % 0.00 in /  0 mm
12:35 51.1 °F /  10.6 °C 31.6 °F /  -0.2 °C 30.17 in /  1021.6 hPa South 1.0 mph /  1.6 km/h 5.0 mph /  8 km/h 47 % 0.00 in /  0 mm
12:39 52.4 °F /  11.3 °C 31.0 °F /  -0.6 °C 30.16 in /  1021.2 hPa Calm   4.0 mph /  6.4 km/h 44 % 0.00 in /  0 mm
12:40 51.1 °F /  10.6 °C 31.6 °F /  -0.2 °C 30.17 in /  1021.6 hPa South 1.0 mph /  1.6 km/h 5.0 mph /  8 km/h 47 % 0.00 in /  0 mm
12:45 51.8 °F /  11 °C 31.7 °F /  -0.2 °C 30.16 in /  1021.2 hPa South 2.0 mph /  3.2 km/h 7.0 mph /  11.3 km/h 46 % 0.00 in /  0 mm
12:50 51.8 °F /  11 °C 31.7 °F /  -0.2 °C 30.16 in /  1021.2 hPa South 2.0 mph /  3.2 km/h 7.0 mph /  11.3 km/h 46 % 0.00 in /  0 mm
12:54 52.8 °F /  11.6 °C 30.0 °F /  -1.1 °C 30.15 in /  1020.9 hPa West 2.0 mph /  3.2 km/h 8.0 mph /  12.9 km/h 42 % 0.00 in /  0 mm
12:55 51.8 °F /  11 °C 31.7 °F /  -0.2 °C 30.16 in /  1021.2 hPa South 2.0 mph /  3.2 km/h 7.0 mph /  11.3 km/h 46 % 0.00 in /  0 mm
13:00 52.8 °F /  11.6 °C 32.6 °F /  0.3 °C 30.16 in /  1021.2 hPa SSW 1.0 mph /  1.6 km/h 7.0 mph /  11.3 km/h 46 % 0.00 in /  0 mm
13:05 52.8 °F /  11.6 °C 32.6 °F /  0.3 °C 30.16 in /  1021.2 hPa SSW 1.0 mph /  1.6 km/h 7.0 mph /  11.3 km/h 46 % 0.00 in /  0 mm
13:09 52.9 °F /  11.6 °C 31.0 °F /  -0.6 °C 30.15 in /  1020.9 hPa Calm   6.0 mph /  9.7 km/h 43 % 0.00 in /  0 mm
13:10 52.8 °F /  11.6 °C 32.6 °F /  0.3 °C 30.16 in /  1021.2 hPa SSW 1.0 mph /  1.6 km/h 7.0 mph /  11.3 km/h 46 % 0.00 in /  0 mm
13:15 52.6 °F /  11.4 °C 28.4 °F /  -2 °C 30.16 in /  1021.2 hPa WSW 2.0 mph /  3.2 km/h 8.0 mph /  12.9 km/h 39 % 0.00 in /  0 mm
13:20 52.6 °F /  11.4 °C 28.4 °F /  -2 °C 30.16 in /  1021.2 hPa WSW 2.0 mph /  3.2 km/h 8.0 mph /  12.9 km/h 39 % 0.00 in /  0 mm
13:24 53.7 °F /  12.1 °C 30.0 °F /  -1.1 °C 30.15 in /  1020.9 hPa WSW 3.0 mph /  4.8 km/h 4.0 mph /  6.4 km/h 40 % 0.00 in /  0 mm
13:25 52.6 °F /  11.4 °C 28.4 °F /  -2 °C 30.16 in /  1021.2 hPa WSW 2.0 mph /  3.2 km/h 8.0 mph /  12.9 km/h 39 % 0.00 in /  0 mm
13:30 53.7 °F /  12.1 °C 30.6 °F /  -0.8 °C 30.15 in /  1020.9 hPa West 1.0 mph /  1.6 km/h 6.0 mph /  9.7 km/h 41 % 0.00 in /  0 mm
13:35 53.7 °F /  12.1 °C 30.6 °F /  -0.8 °C 30.15 in /  1020.9 hPa West 1.0 mph /  1.6 km/h 6.0 mph /  9.7 km/h 41 % 0.00 in /  0 mm
13:39 54.0 °F /  12.2 °C 32.0 °F /  0 °C 30.14 in /  1020.5 hPa Calm   5.0 mph /  8 km/h 43 % 0.00 in /  0 mm
13:40 53.7 °F /  12.1 °C 30.6 °F /  -0.8 °C 30.15 in /  1020.9 hPa West 1.0 mph /  1.6 km/h 6.0 mph /  9.7 km/h 41 % 0.00 in /  0 mm
13:45 53.5 °F /  11.9 °C 29.8 °F /  -1.2 °C 30.15 in /  1020.9 hPa SSW 1.0 mph /  1.6 km/h 7.0 mph /  11.3 km/h 40 % 0.00 in /  0 mm
13:50 53.5 °F /  11.9 °C 29.8 °F /  -1.2 °C 30.15 in /  1020.9 hPa SSW 1.0 mph /  1.6 km/h 7.0 mph /  11.3 km/h 40 % 0.00 in /  0 mm
13:54 54.1 °F /  12.3 °C 31.0 °F /  -0.6 °C 30.14 in /  1020.5 hPa Calm   8.0 mph /  12.9 km/h 42 % 0.00 in /  0 mm
13:55 53.5 °F /  11.9 °C 29.8 °F /  -1.2 °C 30.15 in /  1020.9 hPa SSW 1.0 mph /  1.6 km/h 7.0 mph /  11.3 km/h 40 % 0.00 in /  0 mm
14:00 54.0 °F /  12.2 °C 30.2 °F /  -1 °C 30.15 in /  1020.9 hPa WNW 1.0 mph /  1.6 km/h 6.0 mph /  9.7 km/h 40 % 0.00 in /  0 mm
14:05 54.0 °F /  12.2 °C 30.2 °F /  -1 °C 30.15 in /  1020.9 hPa WNW 1.0 mph /  1.6 km/h 6.0 mph /  9.7 km/h 40 % 0.00 in /  0 mm
14:09 54.6 °F /  12.6 °C 32.0 °F /  0 °C 30.14 in /  1020.5 hPa SW 2.0 mph /  3.2 km/h 5.0 mph /  8 km/h 42 % 0.00 in /  0 mm
14:10 54.0 °F /  12.2 °C 30.2 °F /  -1 °C 30.15 in /  1020.9 hPa WNW 1.0 mph /  1.6 km/h 6.0 mph /  9.7 km/h 40 % 0.00 in /  0 mm
14:15 54.3 °F /  12.4 °C 32.9 °F /  0.5 °C 30.14 in /  1020.5 hPa SSW 1.0 mph /  1.6 km/h 8.0 mph /  12.9 km/h 44 % 0.00 in /  0 mm
14:20 54.3 °F /  12.4 °C 32.9 °F /  0.5 °C 30.14 in /  1020.5 hPa SSW 1.0 mph /  1.6 km/h 8.0 mph /  12.9 km/h 44 % 0.00 in /  0 mm
14:24 54.6 °F /  12.6 °C 29.0 °F /  -1.7 °C 30.13 in /  1020.2 hPa Calm   5.0 mph /  8 km/h 38 % 0.00 in /  0 mm
14:25 54.3 °F /  12.4 °C 32.9 °F /  0.5 °C 30.14 in /  1020.5 hPa SSW 1.0 mph /  1.6 km/h 8.0 mph /  12.9 km/h 44 % 0.00 in /  0 mm
14:30 54.4 °F /  12.4 °C 29.3 °F /  -1.5 °C 30.14 in /  1020.5 hPa SW 1.0 mph /  1.6 km/h 5.0 mph /  8 km/h 38 % 0.00 in /  0 mm
14:35 54.4 °F /  12.4 °C 29.3 °F /  -1.5 °C 30.14 in /  1020.5 hPa SW 1.0 mph /  1.6 km/h 5.0 mph /  8 km/h 38 % 0.00 in /  0 mm
14:39 54.8 °F /  12.7 °C 29.0 °F /  -1.7 °C 30.13 in /  1020.2 hPa Calm   5.0 mph /  8 km/h 37 % 0.00 in /  0 mm
14:40 54.4 °F /  12.4 °C 29.3 °F /  -1.5 °C 30.14 in /  1020.5 hPa SW 1.0 mph /  1.6 km/h 5.0 mph /  8 km/h 38 % 0.00 in /  0 mm
14:45 54.8 °F /  12.7 °C 30.3 °F /  -0.9 °C 30.13 in /  1020.2 hPa SSE 1.0 mph /  1.6 km/h 5.0 mph /  8 km/h 39 % 0.00 in /  0 mm
14:50 54.8 °F /  12.7 °C 30.3 °F /  -0.9 °C 30.13 in /  1020.2 hPa SSE 1.0 mph /  1.6 km/h 5.0 mph /  8 km/h 39 % 0.00 in /  0 mm
14:55 54.8 °F /  12.7 °C 30.3 °F /  -0.9 °C 30.13 in /  1020.2 hPa SSE 1.0 mph /  1.6 km/h 5.0 mph /  8 km/h 39 % 0.00 in /  0 mm
14:58 55.0 °F /  12.8 °C 31.0 °F /  -0.6 °C 30.13 in /  1020.2 hPa Calm   5.0 mph /  8 km/h 40 % 0.00 in /  0 mm
15:00 54.9 °F /  12.7 °C 29.8 °F /  -1.2 °C 30.13 in /  1020.2 hPa South 1.0 mph /  1.6 km/h 7.0 mph /  11.3 km/h 38 % 0.00 in /  0 mm
15:05 54.9 °F /  12.7 °C 29.8 °F /  -1.2 °C 30.13 in /  1020.2 hPa South 1.0 mph /  1.6 km/h 7.0 mph /  11.3 km/h 38 % 0.00 in /  0 mm
15:09 54.8 °F /  12.7 °C 29.0 °F /  -1.7 °C 30.13 in /  1020.2 hPa Calm   11.0 mph /  17.7 km/h 38 % 0.00 in /  0 mm
15:10 54.9 °F /  12.7 °C 29.8 °F /  -1.2 °C 30.13 in /  1020.2 hPa South 1.0 mph /  1.6 km/h 7.0 mph /  11.3 km/h 38 % 0.00 in /  0 mm
15:15 55.0 °F /  12.8 °C 30.5 °F /  -0.8 °C 30.13 in /  1020.2 hPa South 2.0 mph /  3.2 km/h 7.0 mph /  11.3 km/h 39 % 0.00 in /  0 mm
15:20 55.0 °F /  12.8 °C 30.5 °F /  -0.8 °C 30.13 in /  1020.2 hPa South 2.0 mph /  3.2 km/h 7.0 mph /  11.3 km/h 39 % 0.00 in /  0 mm
15:25 55.0 °F /  12.8 °C 30.5 °F /  -0.8 °C 30.13 in /  1020.2 hPa South 2.0 mph /  3.2 km/h 7.0 mph /  11.3 km/h 39 % 0.00 in /  0 mm
15:30 54.6 °F /  12.6 °C 28.2 °F /  -2.1 °C 30.13 in /  1020.2 hPa SSE 2.0 mph /  3.2 km/h 11.0 mph /  17.7 km/h 36 % 0.00 in /  0 mm
15:31 54.9 °F /  12.7 °C 29.0 °F /  -1.7 °C 30.13 in /  1020.2 hPa South 2.0 mph /  3.2 km/h 6.0 mph /  9.7 km/h 37 % 0.00 in /  0 mm
15:35 54.6 °F /  12.6 °C 28.2 °F /  -2.1 °C 30.13 in /  1020.2 hPa SSE 2.0 mph /  3.2 km/h 11.0 mph /  17.7 km/h 36 % 0.00 in /  0 mm
15:39 54.3 °F /  12.4 °C 26.0 °F /  -3.3 °C 30.13 in /  1020.2 hPa ESE 3.0 mph /  4.8 km/h 10.0 mph /  16.1 km/h 33 % 0.00 in /  0 mm
15:40 54.6 °F /  12.6 °C 28.2 °F /  -2.1 °C 30.13 in /  1020.2 hPa SSE 2.0 mph /  3.2 km/h 11.0 mph /  17.7 km/h 36 % 0.00 in /  0 mm
15:45 54.6 °F /  12.6 °C 29.5 °F /  -1.4 °C 30.13 in /  1020.2 hPa SSE 2.0 mph /  3.2 km/h 5.0 mph /  8 km/h 38 % 0.00 in /  0 mm
15:50 54.6 °F /  12.6 °C 29.5 °F /  -1.4 °C 30.13 in /  1020.2 hPa SSE 2.0 mph /  3.2 km/h 5.0 mph /  8 km/h 38 % 0.00 in /  0 mm
15:54 54.4 °F /  12.4 °C 26.0 °F /  -3.3 °C 30.12 in /  1019.9 hPa Calm   4.0 mph /  6.4 km/h 34 % 0.00 in /  0 mm
15:55 54.6 °F /  12.6 °C 29.5 °F /  -1.4 °C 30.13 in /  1020.2 hPa SSE 2.0 mph /  3.2 km/h 5.0 mph /  8 km/h 38 % 0.00 in /  0 mm
16:00 54.4 °F /  12.4 °C 26.6 °F /  -3 °C 30.13 in /  1020.2 hPa SSW 3.0 mph /  4.8 km/h 11.0 mph /  17.7 km/h 34 % 0.00 in /  0 mm
16:05 54.4 °F /  12.4 °C 26.6 °F /  -3 °C 30.13 in /  1020.2 hPa SSW 3.0 mph /  4.8 km/h 11.0 mph /  17.7 km/h 34 % 0.00 in /  0 mm
16:09 54.5 °F /  12.5 °C 28.0 °F /  -2.2 °C 30.12 in /  1019.9 hPa Calm   6.0 mph /  9.7 km/h 37 % 0.00 in /  0 mm
16:10 54.4 °F /  12.4 °C 26.6 °F /  -3 °C 30.13 in /  1020.2 hPa SSW 3.0 mph /  4.8 km/h 11.0 mph /  17.7 km/h 34 % 0.00 in /  0 mm
16:15 54.2 °F /  12.3 °C 27.2 °F /  -2.7 °C 30.12 in /  1019.9 hPa SSW 1.0 mph /  1.6 km/h 6.0 mph /  9.7 km/h 35 % 0.00 in /  0 mm
16:20 54.2 °F /  12.3 °C 27.2 °F /  -2.7 °C 30.12 in /  1019.9 hPa SSW 1.0 mph /  1.6 km/h 6.0 mph /  9.7 km/h 35 % 0.00 in /  0 mm
16:24 54.0 °F /  12.2 °C 28.0 °F /  -2.2 °C 30.12 in /  1019.9 hPa South 1.0 mph /  1.6 km/h 6.0 mph /  9.7 km/h 37 % 0.00 in /  0 mm
16:25 54.2 °F /  12.3 °C 27.2 °F /  -2.7 °C 30.12 in /  1019.9 hPa SSW 1.0 mph /  1.6 km/h 6.0 mph /  9.7 km/h 35 % 0.00 in /  0 mm
16:30 54.2 °F /  12.3 °C 28.5 °F /  -1.9 °C 30.12 in /  1019.9 hPa South 1.0 mph /  1.6 km/h 6.0 mph /  9.7 km/h 37 % 0.00 in /  0 mm
16:35 54.2 °F /  12.3 °C 28.5 °F /  -1.9 °C 30.12 in /  1019.9 hPa South 1.0 mph /  1.6 km/h 6.0 mph /  9.7 km/h 37 % 0.00 in /  0 mm
16:39 53.9 °F /  12.2 °C 27.0 °F /  -2.8 °C 30.11 in /  1019.5 hPa Calm   7.0 mph /  11.3 km/h 36 % 0.00 in /  0 mm
16:40 54.2 °F /  12.3 °C 28.5 °F /  -1.9 °C 30.12 in /  1019.9 hPa South 1.0 mph /  1.6 km/h 6.0 mph /  9.7 km/h 37 % 0.00 in /  0 mm
16:45 53.9 °F /  12.2 °C 27.6 °F /  -2.4 °C 30.12 in /  1019.9 hPa South 2.0 mph /  3.2 km/h 7.0 mph /  11.3 km/h 36 % 0.00 in /  0 mm
16:50 53.9 °F /  12.2 °C 27.6 °F /  -2.4 °C 30.12 in /  1019.9 hPa South 2.0 mph /  3.2 km/h 7.0 mph /  11.3 km/h 36 % 0.00 in /  0 mm
16:54 53.3 °F /  11.8 °C 27.0 °F /  -2.8 °C 30.11 in /  1019.5 hPa Calm   4.0 mph /  6.4 km/h 36 % 0.00 in /  0 mm
16:55 53.9 °F /  12.2 °C 27.6 °F /  -2.4 °C 30.12 in /  1019.9 hPa South 2.0 mph /  3.2 km/h 7.0 mph /  11.3 km/h 36 % 0.00 in /  0 mm
17:00 53.6 °F /  12 °C 28.0 °F /  -2.2 °C 30.11 in /  1019.5 hPa SSW 1.0 mph /  1.6 km/h 8.0 mph /  12.9 km/h 37 % 0.00 in /  0 mm
17:05 53.6 °F /  12 °C 28.0 °F /  -2.2 °C 30.11 in /  1019.5 hPa SSW 1.0 mph /  1.6 km/h 8.0 mph /  12.9 km/h 37 % 0.00 in /  0 mm
17:09 52.8 °F /  11.6 °C 27.0 °F /  -2.8 °C 30.11 in /  1019.5 hPa Calm   7.0 mph /  11.3 km/h 37 % 0.00 in /  0 mm
17:10 53.6 °F /  12 °C 28.0 °F /  -2.2 °C 30.11 in /  1019.5 hPa SSW 1.0 mph /  1.6 km/h 8.0 mph /  12.9 km/h 37 % 0.00 in /  0 mm
17:15 53.1 °F /  11.7 °C 26.9 °F /  -2.8 °C 30.11 in /  1019.5 hPa South 1.0 mph /  1.6 km/h 4.0 mph /  6.4 km/h 36 % 0.00 in /  0 mm
17:20 53.1 °F /  11.7 °C 26.9 °F /  -2.8 °C 30.11 in /  1019.5 hPa South 1.0 mph /  1.6 km/h 4.0 mph /  6.4 km/h 36 % 0.00 in /  0 mm
17:24 52.5 °F /  11.4 °C 27.0 °F /  -2.8 °C 30.10 in /  1019.2 hPa Calm   7.0 mph /  11.3 km/h 38 % 0.00 in /  0 mm
17:25 53.1 °F /  11.7 °C 26.9 °F /  -2.8 °C 30.11 in /  1019.5 hPa South 1.0 mph /  1.6 km/h 4.0 mph /  6.4 km/h 36 % 0.00 in /  0 mm
17:30 52.7 °F /  11.5 °C 27.2 °F /  -2.7 °C 30.10 in /  1019.2 hPa SSW 1.0 mph /  1.6 km/h 7.0 mph /  11.3 km/h 37 % 0.00 in /  0 mm
17:35 52.7 °F /  11.5 °C 27.2 °F /  -2.7 °C 30.10 in /  1019.2 hPa SSW 1.0 mph /  1.6 km/h 7.0 mph /  11.3 km/h 37 % 0.00 in /  0 mm
17:39 51.7 °F /  10.9 °C 28.0 °F /  -2.2 °C 30.09 in /  1018.8 hPa SW 1.0 mph /  1.6 km/h 4.0 mph /  6.4 km/h 40 % 0.00 in /  0 mm
17:40 52.7 °F /  11.5 °C 27.2 °F /  -2.7 °C 30.10 in /  1019.2 hPa SSW 1.0 mph /  1.6 km/h 7.0 mph /  11.3 km/h 37 % 0.00 in /  0 mm
17:45 52.3 °F /  11.3 °C 27.5 °F /  -2.5 °C 30.10 in /  1019.2 hPa SW 1.0 mph /  1.6 km/h 7.0 mph /  11.3 km/h 38 % 0.00 in /  0 mm
17:50 52.3 °F /  11.3 °C 27.5 °F /  -2.5 °C 30.10 in /  1019.2 hPa SW 1.0 mph /  1.6 km/h 7.0 mph /  11.3 km/h 38 % 0.00 in /  0 mm
17:54 50.9 °F /  10.5 °C 28.0 °F /  -2.2 °C 30.09 in /  1018.8 hPa Calm   5.0 mph /  8 km/h 41 % 0.00 in /  0 mm
17:55 52.3 °F /  11.3 °C 27.5 °F /  -2.5 °C 30.10 in /  1019.2 hPa SW 1.0 mph /  1.6 km/h 7.0 mph /  11.3 km/h 38 % 0.00 in /  0 mm
18:00 51.3 °F /  10.7 °C 27.8 °F /  -2.3 °C 30.09 in /  1018.8 hPa SW 1.0 mph /  1.6 km/h 5.0 mph /  8 km/h 40 % 0.00 in /  0 mm
18:05 51.3 °F /  10.7 °C 27.8 °F /  -2.3 °C 30.09 in /  1018.8 hPa SW 1.0 mph /  1.6 km/h 5.0 mph /  8 km/h 40 % 0.00 in /  0 mm
18:09 50.0 °F /  10 °C 28.0 °F /  -2.2 °C 30.09 in /  1018.8 hPa Calm   5.0 mph /  8 km/h 43 % 0.00 in /  0 mm
18:10 51.3 °F /  10.7 °C 27.8 °F /  -2.3 °C 30.09 in /  1018.8 hPa SW 1.0 mph /  1.6 km/h 5.0 mph /  8 km/h 40 % 0.00 in /  0 mm
18:15 50.5 °F /  10.3 °C 28.3 °F /  -2.1 °C 30.09 in /  1018.8 hPa SSW 1.0 mph /  1.6 km/h 5.0 mph /  8 km/h 42 % 0.00 in /  0 mm
18:20 50.5 °F /  10.3 °C 28.3 °F /  -2.1 °C 30.09 in /  1018.8 hPa SSW 1.0 mph /  1.6 km/h 5.0 mph /  8 km/h 42 % 0.00 in /  0 mm
18:24 49.1 °F /  9.5 °C 28.0 °F /  -2.2 °C 30.09 in /  1018.8 hPa South 1.0 mph /  1.6 km/h 1.0 mph /  1.6 km/h 44 % 0.00 in /  0 mm
18:25 50.5 °F /  10.3 °C 28.3 °F /  -2.1 °C 30.09 in /  1018.8 hPa SSW 1.0 mph /  1.6 km/h 5.0 mph /  8 km/h 42 % 0.00 in /  0 mm
18:30 49.7 °F /  9.8 °C 28.1 °F /  -2.2 °C 30.09 in /  1018.8 hPa Calm   6.0 mph /  9.7 km/h 43 % 0.00 in /  0 mm
18:35 49.7 °F /  9.8 °C 28.1 °F /  -2.2 °C 30.09 in /  1018.8 hPa Calm   6.0 mph /  9.7 km/h 43 % 0.00 in /  0 mm
18:39 47.8 °F /  8.8 °C 28.0 °F /  -2.2 °C 30.09 in /  1018.8 hPa Calm   3.0 mph /  4.8 km/h 46 % 0.00 in /  0 mm
18:40 49.7 °F /  9.8 °C 28.1 °F /  -2.2 °C 30.09 in /  1018.8 hPa Calm   6.0 mph /  9.7 km/h 43 % 0.00 in /  0 mm
18:45 48.6 °F /  9.2 °C 28.8 °F /  -1.8 °C 30.09 in /  1018.8 hPa Calm   2.0 mph /  3.2 km/h 46 % 0.00 in /  0 mm
18:50 48.6 °F /  9.2 °C 28.8 °F /  -1.8 °C 30.09 in /  1018.8 hPa Calm   2.0 mph /  3.2 km/h 46 % 0.00 in /  0 mm
18:54 46.7 °F /  8.2 °C 28.0 °F /  -2.2 °C 30.09 in /  1018.8 hPa Calm   2.0 mph /  3.2 km/h 48 % 0.00 in /  0 mm
18:55 48.6 °F /  9.2 °C 28.8 °F /  -1.8 °C 30.09 in /  1018.8 hPa Calm   2.0 mph /  3.2 km/h 46 % 0.00 in /  0 mm
19:00 47.3 °F /  8.5 °C 28.1 °F /  -2.2 °C 30.09 in /  1018.8 hPa Calm   3.0 mph /  4.8 km/h 47 % 0.00 in /  0 mm
19:05 47.3 °F /  8.5 °C 28.1 °F /  -2.2 °C 30.09 in /  1018.8 hPa Calm   3.0 mph /  4.8 km/h 47 % 0.00 in /  0 mm
19:09 45.9 °F /  7.7 °C 28.0 °F /  -2.2 °C 30.09 in /  1018.8 hPa Calm   2.0 mph /  3.2 km/h 49 % 0.00 in /  0 mm
19:10 47.3 °F /  8.5 °C 28.1 °F /  -2.2 °C 30.09 in /  1018.8 hPa Calm   3.0 mph /  4.8 km/h 47 % 0.00 in /  0 mm
19:15 46.3 °F /  7.9 °C 27.7 °F /  -2.4 °C 30.10 in /  1019.2 hPa Calm   2.0 mph /  3.2 km/h 48 % 0.00 in /  0 mm
19:20 46.3 °F /  7.9 °C 27.7 °F /  -2.4 °C 30.10 in /  1019.2 hPa Calm   2.0 mph /  3.2 km/h 48 % 0.00 in /  0 mm
19:24 45.1 °F /  7.3 °C 27.0 °F /  -2.8 °C 30.10 in /  1019.2 hPa Calm   4.0 mph /  6.4 km/h 50 % 0.01 in /  0.25 mm
19:25 46.3 °F /  7.9 °C 27.7 °F /  -2.4 °C 30.10 in /  1019.2 hPa Calm   2.0 mph /  3.2 km/h 48 % 0.00 in /  0 mm
19:30 45.5 °F /  7.5 °C 27.5 °F /  -2.5 °C 30.10 in /  1019.2 hPa Calm   2.0 mph /  3.2 km/h 49 % 0.00 in /  0 mm
19:35 45.5 °F /  7.5 °C 27.5 °F /  -2.5 °C 30.10 in /  1019.2 hPa Calm   2.0 mph /  3.2 km/h 49 % 0.00 in /  0 mm
19:39 44.5 °F /  6.9 °C 27.0 °F /  -2.8 °C 30.10 in /  1019.2 hPa Calm   2.0 mph /  3.2 km/h 51 % 0.01 in /  0.25 mm
19:40 45.5 °F /  7.5 °C 27.5 °F /  -2.5 °C 30.10 in /  1019.2 hPa Calm   2.0 mph /  3.2 km/h 49 % 0.00 in /  0 mm
19:45 44.9 °F /  7.2 °C 27.4 °F /  -2.6 °C 30.10 in /  1019.2 hPa Calm   4.0 mph /  6.4 km/h 50 % 0.00 in /  0 mm
19:50 44.9 °F /  7.2 °C 27.4 °F /  -2.6 °C 30.10 in /  1019.2 hPa Calm   4.0 mph /  6.4 km/h 50 % 0.00 in /  0 mm
19:54 44.0 °F /  6.7 °C 27.0 °F /  -2.8 °C 30.10 in /  1019.2 hPa Calm   4.0 mph /  6.4 km/h 51 % 0.01 in /  0.25 mm
19:55 44.9 °F /  7.2 °C 27.4 °F /  -2.6 °C 30.10 in /  1019.2 hPa Calm   4.0 mph /  6.4 km/h 50 % 0.00 in /  0 mm
20:00 44.3 °F /  6.8 °C 27.3 °F /  -2.6 °C 30.10 in /  1019.2 hPa Calm   2.0 mph /  3.2 km/h 51 % 0.00 in /  0 mm
20:05 44.3 °F /  6.8 °C 27.3 °F /  -2.6 °C 30.10 in /  1019.2 hPa Calm   2.0 mph /  3.2 km/h 51 % 0.00 in /  0 mm
20:09 43.6 °F /  6.4 °C 27.0 °F /  -2.8 °C 30.10 in /  1019.2 hPa Calm   7.0 mph /  11.3 km/h 52 % 0.01 in /  0.25 mm
20:10 44.3 °F /  6.8 °C 27.3 °F /  -2.6 °C 30.10 in /  1019.2 hPa Calm   2.0 mph /  3.2 km/h 51 % 0.00 in /  0 mm
20:15 43.8 °F /  6.6 °C 26.9 °F /  -2.8 °C 30.10 in /  1019.2 hPa Calm   4.0 mph /  6.4 km/h 51 % 0.00 in /  0 mm
20:20 43.8 °F /  6.6 °C 26.9 °F /  -2.8 °C 30.10 in /  1019.2 hPa Calm   4.0 mph /  6.4 km/h 51 % 0.00 in /  0 mm
20:24 43.4 °F /  6.3 °C 27.0 °F /  -2.8 °C 30.10 in /  1019.2 hPa Calm   4.0 mph /  6.4 km/h 52 % 0.00 in /  0 mm
20:25 43.8 °F /  6.6 °C 26.9 °F /  -2.8 °C 30.10 in /  1019.2 hPa Calm   4.0 mph /  6.4 km/h 51 % 0.00 in /  0 mm
20:30 43.5 °F /  6.4 °C 26.6 °F /  -3 °C 30.10 in /  1019.2 hPa SW 1.0 mph /  1.6 km/h 6.0 mph /  9.7 km/h 51 % 0.00 in /  0 mm
20:35 43.5 °F /  6.4 °C 26.6 °F /  -3 °C 30.10 in /  1019.2 hPa SW 1.0 mph /  1.6 km/h 6.0 mph /  9.7 km/h 51 % 0.00 in /  0 mm
20:39 43.1 °F /  6.2 °C 26.0 °F /  -3.3 °C 30.10 in /  1019.2 hPa Calm   6.0 mph /  9.7 km/h 52 % 0.00 in /  0 mm
20:40 43.5 °F /  6.4 °C 26.6 °F /  -3 °C 30.10 in /  1019.2 hPa SW 1.0 mph /  1.6 km/h 6.0 mph /  9.7 km/h 51 % 0.00 in /  0 mm
20:45 43.3 °F /  6.3 °C 26.9 °F /  -2.8 °C 30.10 in /  1019.2 hPa Calm   4.0 mph /  6.4 km/h 52 % 0.00 in /  0 mm
20:50 43.3 °F /  6.3 °C 26.9 °F /  -2.8 °C 30.10 in /  1019.2 hPa Calm   4.0 mph /  6.4 km/h 52 % 0.00 in /  0 mm
20:54 43.3 °F /  6.3 °C 27.0 °F /  -2.8 °C 30.11 in /  1019.5 hPa Calm   4.0 mph /  6.4 km/h 52 % 0.00 in /  0 mm
20:55 43.3 °F /  6.3 °C 26.9 °F /  -2.8 °C 30.10 in /  1019.2 hPa Calm   4.0 mph /  6.4 km/h 52 % 0.00 in /  0 mm
21:00 43.1 °F /  6.2 °C 26.7 °F /  -2.9 °C 30.10 in /  1019.2 hPa SSW 1.0 mph /  1.6 km/h 6.0 mph /  9.7 km/h 52 % 0.00 in /  0 mm
21:05 43.1 °F /  6.2 °C 26.7 °F /  -2.9 °C 30.10 in /  1019.2 hPa SSW 1.0 mph /  1.6 km/h 6.0 mph /  9.7 km/h 52 % 0.00 in /  0 mm
21:09 43.6 °F /  6.4 °C 27.0 °F /  -2.8 °C 30.11 in /  1019.5 hPa Calm   5.0 mph /  8 km/h 52 % 0.00 in /  0 mm
21:10 43.1 °F /  6.2 °C 26.7 °F /  -2.9 °C 30.10 in /  1019.2 hPa SSW 1.0 mph /  1.6 km/h 6.0 mph /  9.7 km/h 52 % 0.00 in /  0 mm
21:15 43.4 °F /  6.3 °C 27.0 °F /  -2.8 °C 30.11 in /  1019.5 hPa SSW 1.0 mph /  1.6 km/h 5.0 mph /  8 km/h 52 % 0.00 in /  0 mm
21:20 43.4 °F /  6.3 °C 27.0 °F /  -2.8 °C 30.11 in /  1019.5 hPa SSW 1.0 mph /  1.6 km/h 5.0 mph /  8 km/h 52 % 0.00 in /  0 mm
21:24 43.7 °F /  6.5 °C 27.0 °F /  -2.8 °C 30.11 in /  1019.5 hPa South 2.0 mph /  3.2 km/h 5.0 mph /  8 km/h 52 % 0.00 in /  0 mm
21:25 43.4 °F /  6.3 °C 27.0 °F /  -2.8 °C 30.11 in /  1019.5 hPa SSW 1.0 mph /  1.6 km/h 5.0 mph /  8 km/h 52 % 0.00 in /  0 mm
21:30 43.7 °F /  6.5 °C 27.2 °F /  -2.7 °C 30.11 in /  1019.5 hPa South 1.0 mph /  1.6 km/h 5.0 mph /  8 km/h 52 % 0.00 in /  0 mm
21:35 43.7 °F /  6.5 °C 27.2 °F /  -2.7 °C 30.11 in /  1019.5 hPa South 1.0 mph /  1.6 km/h 5.0 mph /  8 km/h 52 % 0.00 in /  0 mm
21:39 43.7 °F /  6.5 °C 27.0 °F /  -2.8 °C 30.11 in /  1019.5 hPa SSW 1.0 mph /  1.6 km/h 5.0 mph /  8 km/h 52 % 0.00 in /  0 mm
21:40 43.7 °F /  6.5 °C 27.2 °F /  -2.7 °C 30.11 in /  1019.5 hPa South 1.0 mph /  1.6 km/h 5.0 mph /  8 km/h 52 % 0.00 in /  0 mm
21:45 43.8 °F /  6.6 °C 27.3 °F /  -2.6 °C 30.12 in /  1019.9 hPa South 2.0 mph /  3.2 km/h 8.0 mph /  12.9 km/h 52 % 0.00 in /  0 mm
21:50 43.8 °F /  6.6 °C 27.3 °F /  -2.6 °C 30.12 in /  1019.9 hPa South 2.0 mph /  3.2 km/h 8.0 mph /  12.9 km/h 52 % 0.00 in /  0 mm
21:54 43.2 °F /  6.2 °C 27.0 °F /  -2.8 °C 30.11 in /  1019.5 hPa Calm   4.0 mph /  6.4 km/h 53 % 0.00 in /  0 mm
21:55 43.8 °F /  6.6 °C 27.3 °F /  -2.6 °C 30.12 in /  1019.9 hPa South 2.0 mph /  3.2 km/h 8.0 mph /  12.9 km/h 52 % 0.00 in /  0 mm
22:00 43.5 °F /  6.4 °C 27.0 °F /  -2.8 °C 30.12 in /  1019.9 hPa SSW 1.0 mph /  1.6 km/h 5.0 mph /  8 km/h 52 % 0.00 in /  0 mm
22:05 43.5 °F /  6.4 °C 27.0 °F /  -2.8 °C 30.12 in /  1019.9 hPa SSW 1.0 mph /  1.6 km/h 5.0 mph /  8 km/h 52 % 0.00 in /  0 mm
22:09 42.7 °F /  5.9 °C 27.0 °F /  -2.8 °C 30.12 in /  1019.9 hPa South 2.0 mph /  3.2 km/h 4.0 mph /  6.4 km/h 54 % 0.00 in /  0 mm
22:10 43.5 °F /  6.4 °C 27.0 °F /  -2.8 °C 30.12 in /  1019.9 hPa SSW 1.0 mph /  1.6 km/h 5.0 mph /  8 km/h 52 % 0.00 in /  0 mm
22:15 42.9 °F /  6.1 °C 27.4 °F /  -2.6 °C 30.12 in /  1019.9 hPa South 1.0 mph /  1.6 km/h 4.0 mph /  6.4 km/h 54 % 0.00 in /  0 mm
22:20 42.9 °F /  6.1 °C 27.4 °F /  -2.6 °C 30.12 in /  1019.9 hPa South 1.0 mph /  1.6 km/h 4.0 mph /  6.4 km/h 54 % 0.00 in /  0 mm
22:24 42.3 °F /  5.7 °C 27.0 °F /  -2.8 °C 30.11 in /  1019.5 hPa Calm   4.0 mph /  6.4 km/h 56 % 0.00 in /  0 mm
22:25 42.9 °F /  6.1 °C 27.4 °F /  -2.6 °C 30.12 in /  1019.9 hPa South 1.0 mph /  1.6 km/h 4.0 mph /  6.4 km/h 54 % 0.00 in /  0 mm
22:30 42.5 °F /  5.8 °C 27.5 °F /  -2.5 °C 30.11 in /  1019.5 hPa South 1.0 mph /  1.6 km/h 5.0 mph /  8 km/h 55 % 0.00 in /  0 mm
22:35 42.5 °F /  5.8 °C 27.5 °F /  -2.5 °C 30.11 in /  1019.5 hPa South 1.0 mph /  1.6 km/h 5.0 mph /  8 km/h 55 % 0.00 in /  0 mm
22:39 42.2 °F /  5.7 °C 27.0 °F /  -2.8 °C 30.11 in /  1019.5 hPa SSW 1.0 mph /  1.6 km/h 6.0 mph /  9.7 km/h 56 % 0.00 in /  0 mm
22:40 42.5 °F /  5.8 °C 27.5 °F /  -2.5 °C 30.11 in /  1019.5 hPa South 1.0 mph /  1.6 km/h 5.0 mph /  8 km/h 55 % 0.00 in /  0 mm
22:45 42.3 °F /  5.7 °C 27.7 °F /  -2.4 °C 30.12 in /  1019.9 hPa SSW 1.0 mph /  1.6 km/h 6.0 mph /  9.7 km/h 56 % 0.00 in /  0 mm
22:50 42.3 °F /  5.7 °C 27.7 °F /  -2.4 °C 30.12 in /  1019.9 hPa SSW 1.0 mph /  1.6 km/h 6.0 mph /  9.7 km/h 56 % 0.00 in /  0 mm
22:54 42.3 °F /  5.7 °C 28.0 °F /  -2.2 °C 30.11 in /  1019.5 hPa Calm   5.0 mph /  8 km/h 57 % 0.00 in /  0 mm
22:55 42.3 °F /  5.7 °C 27.7 °F /  -2.4 °C 30.12 in /  1019.9 hPa SSW 1.0 mph /  1.6 km/h 6.0 mph /  9.7 km/h 56 % 0.00 in /  0 mm
23:00 42.2 °F /  5.7 °C 27.6 °F /  -2.4 °C 30.11 in /  1019.5 hPa SSW 1.0 mph /  1.6 km/h 6.0 mph /  9.7 km/h 56 % 0.00 in /  0 mm
23:05 42.2 °F /  5.7 °C 27.6 °F /  -2.4 °C 30.11 in /  1019.5 hPa SSW 1.0 mph /  1.6 km/h 6.0 mph /  9.7 km/h 56 % 0.00 in /  0 mm
23:09 42.5 °F /  5.8 °C 28.0 °F /  -2.2 °C 30.11 in /  1019.5 hPa South 2.0 mph /  3.2 km/h 8.0 mph /  12.9 km/h 56 % 0.00 in /  0 mm
23:10 42.2 °F /  5.7 °C 27.6 °F /  -2.4 °C 30.11 in /  1019.5 hPa SSW 1.0 mph /  1.6 km/h 6.0 mph /  9.7 km/h 56 % 0.00 in /  0 mm
23:15 42.3 °F /  5.7 °C 27.7 °F /  -2.4 °C 30.11 in /  1019.5 hPa SSW 1.0 mph /  1.6 km/h 5.0 mph /  8 km/h 56 % 0.00 in /  0 mm
23:20 42.3 °F /  5.7 °C 27.7 °F /  -2.4 °C 30.11 in /  1019.5 hPa SSW 1.0 mph /  1.6 km/h 5.0 mph /  8 km/h 56 % 0.00 in /  0 mm
23:24 42.4 °F /  5.8 °C 28.0 °F /  -2.2 °C 30.10 in /  1019.2 hPa WSW 2.0 mph /  3.2 km/h 5.0 mph /  8 km/h 56 % 0.00 in /  0 mm
23:25 42.3 °F /  5.7 °C 27.7 °F /  -2.4 °C 30.11 in /  1019.5 hPa SSW 1.0 mph /  1.6 km/h 5.0 mph /  8 km/h 56 % 0.00 in /  0 mm
23:30 42.5 °F /  5.8 °C 27.9 °F /  -2.3 °C 30.11 in /  1019.5 hPa South 2.0 mph /  3.2 km/h 8.0 mph /  12.9 km/h 56 % 0.00 in /  0 mm
23:35 42.5 °F /  5.8 °C 27.9 °F /  -2.3 °C 30.11 in /  1019.5 hPa South 2.0 mph /  3.2 km/h 8.0 mph /  12.9 km/h 56 % 0.00 in /  0 mm
23:39 42.2 °F /  5.7 °C 27.0 °F /  -2.8 °C 30.10 in /  1019.2 hPa SSW 1.0 mph /  1.6 km/h 3.0 mph /  4.8 km/h 56 % 0.00 in /  0 mm
23:40 42.5 °F /  5.8 °C 27.9 °F /  -2.3 °C 30.11 in /  1019.5 hPa South 2.0 mph /  3.2 km/h 8.0 mph /  12.9 km/h 56 % 0.00 in /  0 mm
23:45 42.4 °F /  5.8 °C 27.8 °F /  -2.3 °C 30.10 in /  1019.2 hPa WSW 1.0 mph /  1.6 km/h 5.0 mph /  8 km/h 56 % 0.00 in /  0 mm
23:50 42.4 °F /  5.8 °C 27.8 °F /  -2.3 °C 30.10 in /  1019.2 hPa WSW 1.0 mph /  1.6 km/h 5.0 mph /  8 km/h 56 % 0.00 in /  0 mm
23:54 42.1 °F /  5.6 °C 27.0 °F /  -2.8 °C 30.09 in /  1018.8 hPa SSE 4.0 mph /  6.4 km/h 5.0 mph /  8 km/h 56 % 0.00 in /  0 mm
23:55 42.4 °F /  5.8 °C 27.8 °F /  -2.3 °C 30.10 in /  1019.2 hPa WSW 1.0 mph /  1.6 km/h 5.0 mph /  8 km/h 56 % 0.00 in /  0 mm
Des Moines Weather and Climate
Compliments of Weather Underground - 4.75 mb

Script developed by  Jim McMurry - jmcmurry@mwt.net Adapted for the template by  Wim van der Kuil - Leuven-Template.eu

You find our weather info also at:

Weather Underground

Equipment we use:

Weather-station
Davis VP2 Plus

Weather-program
Davis Weatherlink.Com

Weather-server
iMac (Retina 4K, 21.5-inch, Late 2015)

Provider
Hostmonster.com

Davis VP2 Plus

Davis Weatherlink.Com

iMac (Retina 4K, 21.5-inch, Late 2015)

Hostmonster.com